sensor_id;sensor_type;location;lat;lon;timestamp;P1;durP1;ratioP1;P2;durP2;ratioP2
37231;SDS011;23125;48.156;15.954;2024-01-15T00:02:20;8.68;;;3.40;;
37231;SDS011;23125;48.156;15.954;2024-01-15T00:04:46;8.57;;;3.25;;
37231;SDS011;23125;48.156;15.954;2024-01-15T00:07:12;9.00;;;3.63;;
37231;SDS011;23125;48.156;15.954;2024-01-15T00:09:39;7.78;;;3.17;;
37231;SDS011;23125;48.156;15.954;2024-01-15T00:12:05;8.30;;;3.50;;
37231;SDS011;23125;48.156;15.954;2024-01-15T00:14:31;7.22;;;3.45;;
37231;SDS011;23125;48.156;15.954;2024-01-15T00:16:57;8.15;;;3.55;;
37231;SDS011;23125;48.156;15.954;2024-01-15T00:19:23;6.60;;;3.40;;
37231;SDS011;23125;48.156;15.954;2024-01-15T00:21:49;6.70;;;3.83;;
37231;SDS011;23125;48.156;15.954;2024-01-15T00:24:15;9.48;;;3.35;;
37231;SDS011;23125;48.156;15.954;2024-01-15T00:26:41;8.98;;;3.60;;
37231;SDS011;23125;48.156;15.954;2024-01-15T00:29:08;7.65;;;3.75;;
37231;SDS011;23125;48.156;15.954;2024-01-15T00:31:34;7.82;;;3.72;;
37231;SDS011;23125;48.156;15.954;2024-01-15T00:34:01;7.22;;;3.38;;
37231;SDS011;23125;48.156;15.954;2024-01-15T00:36:27;8.75;;;3.42;;
37231;SDS011;23125;48.156;15.954;2024-01-15T00:38:54;8.52;;;3.47;;
37231;SDS011;23125;48.156;15.954;2024-01-15T00:41:19;8.88;;;2.85;;
37231;SDS011;23125;48.156;15.954;2024-01-15T00:43:45;8.18;;;3.17;;
37231;SDS011;23125;48.156;15.954;2024-01-15T00:46:14;7.70;;;3.03;;
37231;SDS011;23125;48.156;15.954;2024-01-15T00:48:40;9.52;;;3.55;;
37231;SDS011;23125;48.156;15.954;2024-01-15T00:51:06;8.95;;;3.10;;
37231;SDS011;23125;48.156;15.954;2024-01-15T00:53:32;9.23;;;3.88;;
37231;SDS011;23125;48.156;15.954;2024-01-15T00:55:58;7.50;;;2.97;;
37231;SDS011;23125;48.156;15.954;2024-01-15T00:58:25;11.02;;;5.28;;
37231;SDS011;23125;48.156;15.954;2024-01-15T01:00:51;9.93;;;4.20;;
37231;SDS011;23125;48.156;15.954;2024-01-15T01:03:17;10.07;;;4.28;;
37231;SDS011;23125;48.156;15.954;2024-01-15T01:05:43;9.48;;;3.78;;
37231;SDS011;23125;48.156;15.954;2024-01-15T01:08:10;9.20;;;3.58;;
37231;SDS011;23125;48.156;15.954;2024-01-15T01:10:36;8.15;;;3.70;;
37231;SDS011;23125;48.156;15.954;2024-01-15T01:13:02;7.13;;;2.70;;
37231;SDS011;23125;48.156;15.954;2024-01-15T01:15:28;7.55;;;2.67;;
37231;SDS011;23125;48.156;15.954;2024-01-15T01:17:54;7.43;;;2.70;;
37231;SDS011;23125;48.156;15.954;2024-01-15T01:20:20;8.13;;;3.35;;
37231;SDS011;23125;48.156;15.954;2024-01-15T01:22:46;7.68;;;3.63;;
37231;SDS011;23125;48.156;15.954;2024-01-15T01:25:12;8.98;;;3.60;;
37231;SDS011;23125;48.156;15.954;2024-01-15T01:27:38;7.07;;;3.28;;
37231;SDS011;23125;48.156;15.954;2024-01-15T01:30:04;8.90;;;3.42;;
37231;SDS011;23125;48.156;15.954;2024-01-15T01:32:31;10.32;;;3.90;;
37231;SDS011;23125;48.156;15.954;2024-01-15T01:34:57;7.22;;;3.30;;
37231;SDS011;23125;48.156;15.954;2024-01-15T01:37:23;13.88;;;4.35;;
37231;SDS011;23125;48.156;15.954;2024-01-15T01:39:48;8.43;;;3.85;;
37231;SDS011;23125;48.156;15.954;2024-01-15T01:42:15;7.97;;;3.72;;
37231;SDS011;23125;48.156;15.954;2024-01-15T01:44:41;8.90;;;3.45;;
37231;SDS011;23125;48.156;15.954;2024-01-15T01:47:07;7.15;;;3.22;;
37231;SDS011;23125;48.156;15.954;2024-01-15T01:49:33;8.07;;;3.17;;
37231;SDS011;23125;48.156;15.954;2024-01-15T01:52:01;6.75;;;3.72;;
37231;SDS011;23125;48.156;15.954;2024-01-15T01:54:31;9.10;;;3.03;;
37231;SDS011;23125;48.156;15.954;2024-01-15T01:56:58;7.93;;;2.85;;
37231;SDS011;23125;48.156;15.954;2024-01-15T01:59:25;9.02;;;4.07;;
37231;SDS011;23125;48.156;15.954;2024-01-15T02:01:55;9.60;;;4.60;;
37231;SDS011;23125;48.156;15.954;2024-01-15T02:04:22;9.18;;;3.80;;
37231;SDS011;23125;48.156;15.954;2024-01-15T02:06:50;9.73;;;4.22;;
37231;SDS011;23125;48.156;15.954;2024-01-15T02:09:19;12.98;;;4.60;;
37231;SDS011;23125;48.156;15.954;2024-01-15T02:11:48;7.93;;;3.22;;
37231;SDS011;23125;48.156;15.954;2024-01-15T02:14:14;10.73;;;4.00;;
37231;SDS011;23125;48.156;15.954;2024-01-15T02:16:40;9.15;;;3.92;;
37231;SDS011;23125;48.156;15.954;2024-01-15T02:19:06;10.88;;;3.83;;
37231;SDS011;23125;48.156;15.954;2024-01-15T02:21:32;10.32;;;4.15;;
37231;SDS011;23125;48.156;15.954;2024-01-15T02:23:58;9.30;;;4.43;;
37231;SDS011;23125;48.156;15.954;2024-01-15T02:26:24;11.73;;;4.75;;
37231;SDS011;23125;48.156;15.954;2024-01-15T02:28:51;10.27;;;4.95;;
37231;SDS011;23125;48.156;15.954;2024-01-15T02:31:17;14.07;;;5.68;;
37231;SDS011;23125;48.156;15.954;2024-01-15T02:33:43;15.73;;;6.90;;
37231;SDS011;23125;48.156;15.954;2024-01-15T02:36:11;14.18;;;6.13;;
37231;SDS011;23125;48.156;15.954;2024-01-15T02:38:37;15.05;;;6.55;;
37231;SDS011;23125;48.156;15.954;2024-01-15T02:41:03;15.25;;;6.53;;
37231;SDS011;23125;48.156;15.954;2024-01-15T02:43:29;16.17;;;7.03;;
37231;SDS011;23125;48.156;15.954;2024-01-15T02:45:55;16.17;;;7.30;;
37231;SDS011;23125;48.156;15.954;2024-01-15T02:48:21;12.40;;;6.80;;
37231;SDS011;23125;48.156;15.954;2024-01-15T02:50:47;18.00;;;6.72;;
37231;SDS011;23125;48.156;15.954;2024-01-15T02:53:13;13.52;;;5.63;;
37231;SDS011;23125;48.156;15.954;2024-01-15T02:55:39;15.23;;;6.32;;
37231;SDS011;23125;48.156;15.954;2024-01-15T02:58:04;14.40;;;7.07;;
37231;SDS011;23125;48.156;15.954;2024-01-15T03:00:30;15.95;;;6.70;;
37231;SDS011;23125;48.156;15.954;2024-01-15T03:02:56;18.65;;;7.10;;
37231;SDS011;23125;48.156;15.954;2024-01-15T03:05:22;16.48;;;7.70;;
37231;SDS011;23125;48.156;15.954;2024-01-15T03:07:48;14.23;;;6.53;;
37231;SDS011;23125;48.156;15.954;2024-01-15T03:10:14;16.20;;;7.47;;
37231;SDS011;23125;48.156;15.954;2024-01-15T03:12:39;20.52;;;9.50;;
37231;SDS011;23125;48.156;15.954;2024-01-15T03:15:05;21.98;;;9.20;;
37231;SDS011;23125;48.156;15.954;2024-01-15T03:17:31;23.27;;;8.63;;
37231;SDS011;23125;48.156;15.954;2024-01-15T03:19:57;24.17;;;9.93;;
37231;SDS011;23125;48.156;15.954;2024-01-15T03:22:23;30.25;;;11.48;;
37231;SDS011;23125;48.156;15.954;2024-01-15T03:24:49;15.10;;;7.45;;
37231;SDS011;23125;48.156;15.954;2024-01-15T03:27:15;20.95;;;8.23;;
37231;SDS011;23125;48.156;15.954;2024-01-15T03:29:41;17.13;;;7.55;;
37231;SDS011;23125;48.156;15.954;2024-01-15T03:32:07;15.60;;;5.65;;
37231;SDS011;23125;48.156;15.954;2024-01-15T03:34:33;27.23;;;10.57;;
37231;SDS011;23125;48.156;15.954;2024-01-15T03:36:58;21.63;;;7.32;;
37231;SDS011;23125;48.156;15.954;2024-01-15T03:39:24;30.17;;;11.07;;
37231;SDS011;23125;48.156;15.954;2024-01-15T03:41:51;25.83;;;8.05;;
37231;SDS011;23125;48.156;15.954;2024-01-15T03:44:16;23.65;;;8.15;;
37231;SDS011;23125;48.156;15.954;2024-01-15T03:46:42;23.67;;;8.82;;
37231;SDS011;23125;48.156;15.954;2024-01-15T03:49:08;14.82;;;6.40;;
37231;SDS011;23125;48.156;15.954;2024-01-15T03:51:34;24.27;;;9.00;;
37231;SDS011;23125;48.156;15.954;2024-01-15T03:54:00;29.38;;;10.73;;
37231;SDS011;23125;48.156;15.954;2024-01-15T03:56:26;28.88;;;9.55;;
37231;SDS011;23125;48.156;15.954;2024-01-15T03:58:51;48.40;;;17.83;;
37231;SDS011;23125;48.156;15.954;2024-01-15T04:01:17;22.83;;;9.63;;
37231;SDS011;23125;48.156;15.954;2024-01-15T04:03:43;22.95;;;9.80;;
37231;SDS011;23125;48.156;15.954;2024-01-15T04:06:09;15.32;;;7.93;;
37231;SDS011;23125;48.156;15.954;2024-01-15T04:08:35;14.23;;;6.47;;
37231;SDS011;23125;48.156;15.954;2024-01-15T04:11:00;13.15;;;6.78;;
37231;SDS011;23125;48.156;15.954;2024-01-15T04:13:27;13.13;;;5.85;;
37231;SDS011;23125;48.156;15.954;2024-01-15T04:15:53;12.75;;;6.07;;
37231;SDS011;23125;48.156;15.954;2024-01-15T04:18:18;11.63;;;6.45;;
37231;SDS011;23125;48.156;15.954;2024-01-15T04:20:44;14.02;;;7.45;;
37231;SDS011;23125;48.156;15.954;2024-01-15T04:23:10;13.30;;;6.35;;
37231;SDS011;23125;48.156;15.954;2024-01-15T04:25:36;16.48;;;7.05;;
37231;SDS011;23125;48.156;15.954;2024-01-15T04:28:02;14.07;;;7.15;;
37231;SDS011;23125;48.156;15.954;2024-01-15T04:30:28;22.23;;;7.90;;
37231;SDS011;23125;48.156;15.954;2024-01-15T04:32:54;16.40;;;7.45;;
37231;SDS011;23125;48.156;15.954;2024-01-15T04:35:19;18.25;;;8.52;;
37231;SDS011;23125;48.156;15.954;2024-01-15T04:37:46;17.80;;;7.13;;
37231;SDS011;23125;48.156;15.954;2024-01-15T04:40:12;21.42;;;8.98;;
37231;SDS011;23125;48.156;15.954;2024-01-15T04:42:38;23.38;;;10.10;;
37231;SDS011;23125;48.156;15.954;2024-01-15T04:45:04;17.42;;;8.05;;
37231;SDS011;23125;48.156;15.954;2024-01-15T04:47:30;16.88;;;7.45;;
37231;SDS011;23125;48.156;15.954;2024-01-15T04:49:56;18.75;;;9.43;;
37231;SDS011;23125;48.156;15.954;2024-01-15T04:52:22;20.40;;;8.43;;
37231;SDS011;23125;48.156;15.954;2024-01-15T04:54:48;16.00;;;6.75;;
37231;SDS011;23125;48.156;15.954;2024-01-15T04:57:15;14.93;;;7.25;;
37231;SDS011;23125;48.156;15.954;2024-01-15T04:59:41;15.13;;;7.13;;
37231;SDS011;23125;48.156;15.954;2024-01-15T05:02:07;17.90;;;8.07;;
37231;SDS011;23125;48.156;15.954;2024-01-15T05:04:32;18.23;;;8.45;;
37231;SDS011;23125;48.156;15.954;2024-01-15T05:06:59;16.35;;;7.90;;
37231;SDS011;23125;48.156;15.954;2024-01-15T05:09:25;14.45;;;5.93;;
37231;SDS011;23125;48.156;15.954;2024-01-15T05:11:51;13.23;;;4.38;;
37231;SDS011;23125;48.156;15.954;2024-01-15T05:14:16;14.18;;;6.28;;
37231;SDS011;23125;48.156;15.954;2024-01-15T05:16:49;14.65;;;5.78;;
37231;SDS011;23125;48.156;15.954;2024-01-15T05:19:16;15.25;;;6.80;;
37231;SDS011;23125;48.156;15.954;2024-01-15T05:21:43;12.27;;;5.50;;
37231;SDS011;23125;48.156;15.954;2024-01-15T05:24:09;8.93;;;4.90;;
37231;SDS011;23125;48.156;15.954;2024-01-15T05:26:34;15.57;;;7.20;;
37231;SDS011;23125;48.156;15.954;2024-01-15T05:29:00;10.55;;;3.90;;
37231;SDS011;23125;48.156;15.954;2024-01-15T05:31:26;14.93;;;7.18;;
37231;SDS011;23125;48.156;15.954;2024-01-15T05:33:52;14.27;;;7.22;;
37231;SDS011;23125;48.156;15.954;2024-01-15T05:36:18;12.07;;;6.80;;
37231;SDS011;23125;48.156;15.954;2024-01-15T05:38:44;16.00;;;7.15;;
37231;SDS011;23125;48.156;15.954;2024-01-15T05:41:10;14.80;;;6.75;;
37231;SDS011;23125;48.156;15.954;2024-01-15T05:43:36;16.05;;;7.78;;
37231;SDS011;23125;48.156;15.954;2024-01-15T05:46:01;13.88;;;7.18;;
37231;SDS011;23125;48.156;15.954;2024-01-15T05:48:28;13.77;;;6.88;;
37231;SDS011;23125;48.156;15.954;2024-01-15T05:50:54;13.65;;;7.13;;
37231;SDS011;23125;48.156;15.954;2024-01-15T05:53:20;15.43;;;7.25;;
37231;SDS011;23125;48.156;15.954;2024-01-15T05:55:46;18.48;;;8.77;;
37231;SDS011;23125;48.156;15.954;2024-01-15T05:58:12;14.95;;;7.95;;
37231;SDS011;23125;48.156;15.954;2024-01-15T06:00:40;19.52;;;8.07;;
37231;SDS011;23125;48.156;15.954;2024-01-15T06:03:06;15.25;;;6.40;;
37231;SDS011;23125;48.156;15.954;2024-01-15T06:05:31;15.63;;;6.63;;
37231;SDS011;23125;48.156;15.954;2024-01-15T06:07:57;18.70;;;9.10;;
37231;SDS011;23125;48.156;15.954;2024-01-15T06:10:24;16.35;;;8.07;;
37231;SDS011;23125;48.156;15.954;2024-01-15T06:12:50;19.92;;;7.95;;
37231;SDS011;23125;48.156;15.954;2024-01-15T06:15:16;15.07;;;5.68;;
37231;SDS011;23125;48.156;15.954;2024-01-15T06:17:41;12.35;;;6.00;;
37231;SDS011;23125;48.156;15.954;2024-01-15T06:20:07;15.70;;;7.55;;
37231;SDS011;23125;48.156;15.954;2024-01-15T06:22:34;13.70;;;5.55;;
37231;SDS011;23125;48.156;15.954;2024-01-15T06:25:02;13.57;;;6.60;;
37231;SDS011;23125;48.156;15.954;2024-01-15T06:27:28;11.88;;;6.82;;
37231;SDS011;23125;48.156;15.954;2024-01-15T06:29:54;14.85;;;6.75;;
37231;SDS011;23125;48.156;15.954;2024-01-15T06:32:21;14.15;;;6.13;;
37231;SDS011;23125;48.156;15.954;2024-01-15T06:34:47;14.95;;;6.95;;
37231;SDS011;23125;48.156;15.954;2024-01-15T06:37:13;18.40;;;7.13;;
37231;SDS011;23125;48.156;15.954;2024-01-15T06:39:38;10.05;;;5.28;;
37231;SDS011;23125;48.156;15.954;2024-01-15T06:42:04;10.95;;;5.35;;
37231;SDS011;23125;48.156;15.954;2024-01-15T06:44:30;12.70;;;6.05;;
37231;SDS011;23125;48.156;15.954;2024-01-15T06:46:56;15.13;;;6.13;;
37231;SDS011;23125;48.156;15.954;2024-01-15T06:49:27;12.35;;;6.45;;
37231;SDS011;23125;48.156;15.954;2024-01-15T06:51:54;13.60;;;6.25;;
37231;SDS011;23125;48.156;15.954;2024-01-15T06:54:21;19.13;;;7.13;;
37231;SDS011;23125;48.156;15.954;2024-01-15T06:56:47;18.60;;;6.35;;
37231;SDS011;23125;48.156;15.954;2024-01-15T06:59:13;14.68;;;5.88;;
37231;SDS011;23125;48.156;15.954;2024-01-15T07:01:39;14.82;;;7.20;;
37231;SDS011;23125;48.156;15.954;2024-01-15T07:04:06;12.73;;;5.53;;
37231;SDS011;23125;48.156;15.954;2024-01-15T07:06:34;9.90;;;4.40;;
37231;SDS011;23125;48.156;15.954;2024-01-15T07:09:00;10.43;;;5.70;;
37231;SDS011;23125;48.156;15.954;2024-01-15T07:11:26;12.35;;;6.05;;
37231;SDS011;23125;48.156;15.954;2024-01-15T07:13:51;11.60;;;5.82;;
37231;SDS011;23125;48.156;15.954;2024-01-15T07:16:17;14.60;;;6.88;;
37231;SDS011;23125;48.156;15.954;2024-01-15T07:18:43;14.27;;;6.65;;
37231;SDS011;23125;48.156;15.954;2024-01-15T07:21:09;9.85;;;4.85;;
37231;SDS011;23125;48.156;15.954;2024-01-15T07:23:35;16.08;;;6.68;;
37231;SDS011;23125;48.156;15.954;2024-01-15T07:26:02;17.10;;;7.35;;
37231;SDS011;23125;48.156;15.954;2024-01-15T07:28:30;13.40;;;7.22;;
37231;SDS011;23125;48.156;15.954;2024-01-15T07:30:56;13.57;;;6.10;;
37231;SDS011;23125;48.156;15.954;2024-01-15T07:33:22;13.43;;;6.30;;
37231;SDS011;23125;48.156;15.954;2024-01-15T07:35:48;13.43;;;6.85;;
37231;SDS011;23125;48.156;15.954;2024-01-15T07:38:14;14.30;;;7.18;;
37231;SDS011;23125;48.156;15.954;2024-01-15T07:40:41;12.90;;;5.60;;
37231;SDS011;23125;48.156;15.954;2024-01-15T07:43:06;13.45;;;6.72;;
37231;SDS011;23125;48.156;15.954;2024-01-15T07:45:32;17.25;;;7.30;;
37231;SDS011;23125;48.156;15.954;2024-01-15T07:47:58;11.80;;;6.13;;
37231;SDS011;23125;48.156;15.954;2024-01-15T07:50:24;13.60;;;5.75;;
37231;SDS011;23125;48.156;15.954;2024-01-15T07:52:50;15.50;;;7.30;;
37231;SDS011;23125;48.156;15.954;2024-01-15T07:55:15;13.10;;;5.45;;
37231;SDS011;23125;48.156;15.954;2024-01-15T07:57:41;11.88;;;5.80;;
37231;SDS011;23125;48.156;15.954;2024-01-15T08:00:09;13.45;;;6.93;;
37231;SDS011;23125;48.156;15.954;2024-01-15T08:02:37;11.32;;;5.88;;
37231;SDS011;23125;48.156;15.954;2024-01-15T08:05:04;13.98;;;6.20;;
37231;SDS011;23125;48.156;15.954;2024-01-15T08:07:30;11.70;;;6.15;;
37231;SDS011;23125;48.156;15.954;2024-01-15T08:09:56;12.82;;;6.38;;
37231;SDS011;23125;48.156;15.954;2024-01-15T08:12:22;11.65;;;5.90;;
37231;SDS011;23125;48.156;15.954;2024-01-15T08:14:47;11.75;;;5.78;;
37231;SDS011;23125;48.156;15.954;2024-01-15T08:17:14;10.93;;;5.28;;
37231;SDS011;23125;48.156;15.954;2024-01-15T08:19:42;10.10;;;5.07;;
37231;SDS011;23125;48.156;15.954;2024-01-15T08:22:08;11.98;;;5.43;;
37231;SDS011;23125;48.156;15.954;2024-01-15T08:24:36;10.18;;;4.65;;
37231;SDS011;23125;48.156;15.954;2024-01-15T08:27:03;9.85;;;4.40;;
37231;SDS011;23125;48.156;15.954;2024-01-15T08:29:30;7.30;;;4.20;;
37231;SDS011;23125;48.156;15.954;2024-01-15T08:31:59;6.47;;;3.88;;
37231;SDS011;23125;48.156;15.954;2024-01-15T08:34:30;8.98;;;4.88;;
37231;SDS011;23125;48.156;15.954;2024-01-15T08:36:56;7.25;;;3.95;;
37231;SDS011;23125;48.156;15.954;2024-01-15T08:39:22;8.32;;;4.43;;
37231;SDS011;23125;48.156;15.954;2024-01-15T08:41:49;7.82;;;4.00;;
37231;SDS011;23125;48.156;15.954;2024-01-15T08:44:14;11.23;;;4.18;;
37231;SDS011;23125;48.156;15.954;2024-01-15T08:46:42;11.98;;;6.38;;
37231;SDS011;23125;48.156;15.954;2024-01-15T08:49:08;14.55;;;6.05;;
37231;SDS011;23125;48.156;15.954;2024-01-15T08:51:34;15.00;;;7.60;;
37231;SDS011;23125;48.156;15.954;2024-01-15T08:54:00;14.02;;;6.47;;
37231;SDS011;23125;48.156;15.954;2024-01-15T08:56:27;7.88;;;4.72;;
37231;SDS011;23125;48.156;15.954;2024-01-15T08:58:53;9.82;;;5.65;;
37231;SDS011;23125;48.156;15.954;2024-01-15T09:01:22;7.47;;;4.05;;
37231;SDS011;23125;48.156;15.954;2024-01-15T09:03:48;8.68;;;5.25;;
37231;SDS011;23125;48.156;15.954;2024-01-15T09:06:15;7.40;;;3.88;;
37231;SDS011;23125;48.156;15.954;2024-01-15T09:08:42;9.77;;;4.03;;
37231;SDS011;23125;48.156;15.954;2024-01-15T09:11:09;6.28;;;3.85;;
37231;SDS011;23125;48.156;15.954;2024-01-15T09:13:35;6.60;;;3.28;;
37231;SDS011;23125;48.156;15.954;2024-01-15T09:16:01;9.23;;;4.15;;
37231;SDS011;23125;48.156;15.954;2024-01-15T09:18:28;8.25;;;4.13;;
37231;SDS011;23125;48.156;15.954;2024-01-15T09:20:55;9.10;;;4.80;;
37231;SDS011;23125;48.156;15.954;2024-01-15T09:23:21;9.60;;;4.75;;
37231;SDS011;23125;48.156;15.954;2024-01-15T09:25:46;8.93;;;4.70;;
37231;SDS011;23125;48.156;15.954;2024-01-15T09:28:15;8.45;;;3.80;;
37231;SDS011;23125;48.156;15.954;2024-01-15T09:30:40;8.10;;;4.32;;
37231;SDS011;23125;48.156;15.954;2024-01-15T09:33:06;9.32;;;6.20;;
37231;SDS011;23125;48.156;15.954;2024-01-15T09:35:32;9.68;;;6.68;;
37231;SDS011;23125;48.156;15.954;2024-01-15T09:37:59;8.85;;;6.13;;
37231;SDS011;23125;48.156;15.954;2024-01-15T09:40:28;7.43;;;4.40;;
37231;SDS011;23125;48.156;15.954;2024-01-15T09:43:00;6.88;;;3.17;;
37231;SDS011;23125;48.156;15.954;2024-01-15T09:45:28;6.85;;;3.20;;
37231;SDS011;23125;48.156;15.954;2024-01-15T09:47:55;7.28;;;3.72;;
37231;SDS011;23125;48.156;15.954;2024-01-15T09:50:21;3.90;;;2.40;;
37231;SDS011;23125;48.156;15.954;2024-01-15T09:52:47;5.55;;;2.75;;
37231;SDS011;23125;48.156;15.954;2024-01-15T09:55:14;6.75;;;3.40;;
37231;SDS011;23125;48.156;15.954;2024-01-15T09:57:41;6.63;;;3.20;;
37231;SDS011;23125;48.156;15.954;2024-01-15T10:00:09;5.95;;;3.45;;
37231;SDS011;23125;48.156;15.954;2024-01-15T10:02:36;5.90;;;3.10;;
37231;SDS011;23125;48.156;15.954;2024-01-15T10:05:03;5.68;;;2.90;;
37231;SDS011;23125;48.156;15.954;2024-01-15T10:07:30;6.43;;;3.25;;
37231;SDS011;23125;48.156;15.954;2024-01-15T10:09:59;3.88;;;2.65;;
37231;SDS011;23125;48.156;15.954;2024-01-15T10:12:25;5.70;;;2.97;;
37231;SDS011;23125;48.156;15.954;2024-01-15T10:14:53;6.07;;;3.78;;
37231;SDS011;23125;48.156;15.954;2024-01-15T10:17:21;5.82;;;3.50;;
37231;SDS011;23125;48.156;15.954;2024-01-15T10:19:47;4.88;;;3.15;;
37231;SDS011;23125;48.156;15.954;2024-01-15T10:22:14;6.68;;;2.80;;
37231;SDS011;23125;48.156;15.954;2024-01-15T10:24:41;6.72;;;3.35;;
37231;SDS011;23125;48.156;15.954;2024-01-15T10:27:07;8.20;;;3.60;;
37231;SDS011;23125;48.156;15.954;2024-01-15T10:29:35;6.38;;;3.65;;
37231;SDS011;23125;48.156;15.954;2024-01-15T10:32:06;5.30;;;3.28;;
37231;SDS011;23125;48.156;15.954;2024-01-15T10:34:37;6.95;;;3.50;;
37231;SDS011;23125;48.156;15.954;2024-01-15T10:37:06;6.78;;;3.90;;
37231;SDS011;23125;48.156;15.954;2024-01-15T10:39:33;6.00;;;3.65;;
37231;SDS011;23125;48.156;15.954;2024-01-15T10:41:58;6.35;;;3.90;;
37231;SDS011;23125;48.156;15.954;2024-01-15T10:44:25;6.13;;;3.92;;
37231;SDS011;23125;48.156;15.954;2024-01-15T10:46:51;7.03;;;4.10;;
37231;SDS011;23125;48.156;15.954;2024-01-15T10:49:18;7.43;;;3.95;;
37231;SDS011;23125;48.156;15.954;2024-01-15T10:51:45;6.70;;;3.60;;
37231;SDS011;23125;48.156;15.954;2024-01-15T10:54:12;8.60;;;4.20;;
37231;SDS011;23125;48.156;15.954;2024-01-15T10:56:39;6.22;;;3.67;;
37231;SDS011;23125;48.156;15.954;2024-01-15T10:59:06;6.30;;;3.80;;
37231;SDS011;23125;48.156;15.954;2024-01-15T11:01:35;5.07;;;3.17;;
37231;SDS011;23125;48.156;15.954;2024-01-15T11:04:03;6.03;;;3.60;;
37231;SDS011;23125;48.156;15.954;2024-01-15T11:06:40;10.15;;;4.65;;
37231;SDS011;23125;48.156;15.954;2024-01-15T11:09:11;9.10;;;4.32;;
37231;SDS011;23125;48.156;15.954;2024-01-15T11:11:44;6.90;;;3.67;;
37231;SDS011;23125;48.156;15.954;2024-01-15T11:17:10;7.82;;;4.15;;
37231;SDS011;23125;48.156;15.954;2024-01-15T11:19:37;8.07;;;4.63;;
37231;SDS011;23125;48.156;15.954;2024-01-15T11:22:09;7.03;;;4.03;;
37231;SDS011;23125;48.156;15.954;2024-01-15T11:24:57;6.57;;;3.90;;
37231;SDS011;23125;48.156;15.954;2024-01-15T11:27:39;7.32;;;4.22;;
37231;SDS011;23125;48.156;15.954;2024-01-15T11:30:10;5.57;;;3.38;;
37231;SDS011;23125;48.156;15.954;2024-01-15T11:32:37;7.28;;;3.45;;
37231;SDS011;23125;48.156;15.954;2024-01-15T11:35:09;7.15;;;3.33;;
37231;SDS011;23125;48.156;15.954;2024-01-15T11:38:18;4.80;;;2.90;;
37231;SDS011;23125;48.156;15.954;2024-01-15T11:43:00;6.65;;;4.03;;
37231;SDS011;23125;48.156;15.954;2024-01-15T11:45:30;7.70;;;3.78;;
37231;SDS011;23125;48.156;15.954;2024-01-15T11:48:09;8.38;;;4.32;;
37231;SDS011;23125;48.156;15.954;2024-01-15T11:50:40;6.32;;;3.60;;
37231;SDS011;23125;48.156;15.954;2024-01-15T11:53:21;4.47;;;2.42;;
37231;SDS011;23125;48.156;15.954;2024-01-15T11:56:06;6.07;;;3.15;;
37231;SDS011;23125;48.156;15.954;2024-01-15T11:58:46;4.93;;;2.40;;
37231;SDS011;23125;48.156;15.954;2024-01-15T12:01:12;6.05;;;2.95;;
37231;SDS011;23125;48.156;15.954;2024-01-15T12:03:38;4.57;;;3.33;;
37231;SDS011;23125;48.156;15.954;2024-01-15T12:06:07;4.88;;;2.78;;
37231;SDS011;23125;48.156;15.954;2024-01-15T12:08:36;6.25;;;3.35;;
37231;SDS011;23125;48.156;15.954;2024-01-15T12:11:06;4.00;;;2.20;;
37231;SDS011;23125;48.156;15.954;2024-01-15T12:13:36;4.35;;;2.50;;
37231;SDS011;23125;48.156;15.954;2024-01-15T12:16:01;4.00;;;2.75;;
37231;SDS011;23125;48.156;15.954;2024-01-15T12:18:29;4.00;;;1.95;;
37231;SDS011;23125;48.156;15.954;2024-01-15T12:20:56;4.85;;;2.38;;
37231;SDS011;23125;48.156;15.954;2024-01-15T12:23:24;6.10;;;2.70;;
37231;SDS011;23125;48.156;15.954;2024-01-15T12:25:50;3.83;;;2.00;;
37231;SDS011;23125;48.156;15.954;2024-01-15T12:28:16;4.35;;;1.75;;
37231;SDS011;23125;48.156;15.954;2024-01-15T12:30:42;3.30;;;2.05;;
37231;SDS011;23125;48.156;15.954;2024-01-15T12:33:13;2.75;;;1.65;;
37231;SDS011;23125;48.156;15.954;2024-01-15T12:35:39;4.43;;;1.92;;
37231;SDS011;23125;48.156;15.954;2024-01-15T12:38:06;3.60;;;2.15;;
37231;SDS011;23125;48.156;15.954;2024-01-15T12:40:32;4.03;;;2.28;;
37231;SDS011;23125;48.156;15.954;2024-01-15T12:42:59;5.53;;;2.17;;
37231;SDS011;23125;48.156;15.954;2024-01-15T12:45:26;5.35;;;2.25;;
37231;SDS011;23125;48.156;15.954;2024-01-15T12:47:55;6.35;;;2.63;;
37231;SDS011;23125;48.156;15.954;2024-01-15T12:50:23;5.43;;;2.20;;
37231;SDS011;23125;48.156;15.954;2024-01-15T12:55:16;2.53;;;1.98;;
37231;SDS011;23125;48.156;15.954;2024-01-15T12:57:42;3.95;;;2.53;;
37231;SDS011;23125;48.156;15.954;2024-01-15T13:00:09;4.63;;;2.25;;
37231;SDS011;23125;48.156;15.954;2024-01-15T13:02:38;4.00;;;2.25;;
37231;SDS011;23125;48.156;15.954;2024-01-15T13:05:08;3.63;;;2.25;;
37231;SDS011;23125;48.156;15.954;2024-01-15T13:07:39;4.03;;;1.92;;
37231;SDS011;23125;48.156;15.954;2024-01-15T13:10:05;4.00;;;2.00;;
37231;SDS011;23125;48.156;15.954;2024-01-15T13:12:32;4.72;;;2.75;;
37231;SDS011;23125;48.156;15.954;2024-01-15T13:14:59;4.70;;;2.55;;
37231;SDS011;23125;48.156;15.954;2024-01-15T13:17:26;7.65;;;2.90;;
37231;SDS011;23125;48.156;15.954;2024-01-15T13:19:53;5.60;;;2.80;;
37231;SDS011;23125;48.156;15.954;2024-01-15T13:22:19;3.65;;;2.55;;
37231;SDS011;23125;48.156;15.954;2024-01-15T13:24:45;3.20;;;1.77;;
37231;SDS011;23125;48.156;15.954;2024-01-15T13:27:11;2.88;;;1.88;;
37231;SDS011;23125;48.156;15.954;2024-01-15T13:29:37;2.88;;;1.90;;
37231;SDS011;23125;48.156;15.954;2024-01-15T13:32:03;4.63;;;1.73;;
37231;SDS011;23125;48.156;15.954;2024-01-15T13:34:30;3.63;;;2.15;;
37231;SDS011;23125;48.156;15.954;2024-01-15T13:36:57;5.85;;;2.80;;
37231;SDS011;23125;48.156;15.954;2024-01-15T13:39:23;4.78;;;2.72;;
37231;SDS011;23125;48.156;15.954;2024-01-15T13:41:49;5.65;;;2.08;;
37231;SDS011;23125;48.156;15.954;2024-01-15T13:44:15;4.25;;;2.03;;
37231;SDS011;23125;48.156;15.954;2024-01-15T13:46:41;3.45;;;2.25;;
37231;SDS011;23125;48.156;15.954;2024-01-15T13:49:07;4.65;;;2.25;;
37231;SDS011;23125;48.156;15.954;2024-01-15T13:51:34;2.45;;;1.55;;
37231;SDS011;23125;48.156;15.954;2024-01-15T13:54:02;3.67;;;2.28;;
37231;SDS011;23125;48.156;15.954;2024-01-15T13:56:29;2.60;;;1.85;;
37231;SDS011;23125;48.156;15.954;2024-01-15T13:58:58;4.20;;;2.53;;
37231;SDS011;23125;48.156;15.954;2024-01-15T14:01:25;5.07;;;2.13;;
37231;SDS011;23125;48.156;15.954;2024-01-15T14:03:52;4.03;;;2.28;;
37231;SDS011;23125;48.156;15.954;2024-01-15T14:06:19;5.38;;;2.35;;
37231;SDS011;23125;48.156;15.954;2024-01-15T14:08:50;4.07;;;2.13;;
37231;SDS011;23125;48.156;15.954;2024-01-15T14:11:16;3.10;;;1.83;;
37231;SDS011;23125;48.156;15.954;2024-01-15T14:13:41;3.10;;;1.65;;
37231;SDS011;23125;48.156;15.954;2024-01-15T14:16:08;2.38;;;1.70;;
37231;SDS011;23125;48.156;15.954;2024-01-15T14:18:37;2.80;;;1.15;;
37231;SDS011;23125;48.156;15.954;2024-01-15T14:21:03;3.47;;;1.52;;
37231;SDS011;23125;48.156;15.954;2024-01-15T14:23:30;5.28;;;2.20;;
37231;SDS011;23125;48.156;15.954;2024-01-15T14:25:56;3.15;;;1.17;;
37231;SDS011;23125;48.156;15.954;2024-01-15T14:28:22;3.67;;;1.20;;
37231;SDS011;23125;48.156;15.954;2024-01-15T14:30:48;2.33;;;1.30;;
37231;SDS011;23125;48.156;15.954;2024-01-15T14:33:14;4.07;;;1.92;;
37231;SDS011;23125;48.156;15.954;2024-01-15T14:35:40;1.80;;;1.13;;